sensor_id;sensor_type;location;lat;lon;timestamp;pressure;altitude;pressure_sealevel;temperature;humidity
20983;BME280;10650;51.528;6.748;2023-02-28T00:00:04;102864.00;;;2.20;63.17
20983;BME280;10650;51.528;6.748;2023-02-28T00:02:36;102872.84;;;2.21;63.22
20983;BME280;10650;51.528;6.748;2023-02-28T00:05:05;102861.25;;;2.19;63.40
20983;BME280;10650;51.528;6.748;2023-02-28T00:07:34;102864.53;;;2.15;63.06
20983;BME280;10650;51.528;6.748;2023-02-28T00:10:02;102865.38;;;2.14;63.26
20983;BME280;10650;51.528;6.748;2023-02-28T00:12:30;102868.09;;;2.15;63.44
20983;BME280;10650;51.528;6.748;2023-02-28T00:14:58;102870.75;;;2.15;63.05
20983;BME280;10650;51.528;6.748;2023-02-28T00:17:27;102876.72;;;2.13;63.32
20983;BME280;10650;51.528;6.748;2023-02-28T00:19:54;102875.34;;;2.04;62.88
20983;BME280;10650;51.528;6.748;2023-02-28T00:22:23;102872.63;;;2.03;63.27
20983;BME280;10650;51.528;6.748;2023-02-28T00:24:51;102876.91;;;2.01;63.25
20983;BME280;10650;51.528;6.748;2023-02-28T00:27:18;102874.28;;;2.01;63.54
20983;BME280;10650;51.528;6.748;2023-02-28T00:29:46;102880.19;;;1.97;63.22
20983;BME280;10650;51.528;6.748;2023-02-28T00:32:14;102878.44;;;1.97;63.61
20983;BME280;10650;51.528;6.748;2023-02-28T00:34:43;102877.53;;;1.97;63.75
20983;BME280;10650;51.528;6.748;2023-02-28T00:37:11;102884.53;;;1.96;63.54
20983;BME280;10650;51.528;6.748;2023-02-28T00:39:40;102879.69;;;1.89;63.69
20983;BME280;10650;51.528;6.748;2023-02-28T00:42:08;102880.63;;;1.89;64.52
20983;BME280;10650;51.528;6.748;2023-02-28T00:44:35;102882.34;;;1.89;64.35
20983;BME280;10650;51.528;6.748;2023-02-28T00:47:04;102880.13;;;1.82;64.53
20983;BME280;10650;51.528;6.748;2023-02-28T00:49:31;102875.72;;;1.81;64.52
20983;BME280;10650;51.528;6.748;2023-02-28T00:52:00;102871.25;;;1.80;64.41
20983;BME280;10650;51.528;6.748;2023-02-28T00:54:28;102886.44;;;1.84;64.20
20983;BME280;10650;51.528;6.748;2023-02-28T00:56:56;102887.78;;;1.77;64.36
20983;BME280;10650;51.528;6.748;2023-02-28T00:59:24;102881.09;;;1.69;64.56
20983;BME280;10650;51.528;6.748;2023-02-28T01:01:52;102888.31;;;1.71;64.57
20983;BME280;10650;51.528;6.748;2023-02-28T01:04:20;102890.84;;;1.70;65.10
20983;BME280;10650;51.528;6.748;2023-02-28T01:06:47;102889.84;;;1.68;64.95
20983;BME280;10650;51.528;6.748;2023-02-28T01:09:16;102890.75;;;1.68;65.27
20983;BME280;10650;51.528;6.748;2023-02-28T01:11:44;102889.94;;;1.69;64.85
20983;BME280;10650;51.528;6.748;2023-02-28T01:14:13;102892.50;;;1.68;64.52
20983;BME280;10650;51.528;6.748;2023-02-28T01:16:41;102886.19;;;1.66;65.15
20983;BME280;10650;51.528;6.748;2023-02-28T01:19:09;102892.50;;;1.68;64.60
20983;BME280;10650;51.528;6.748;2023-02-28T01:21:37;102901.28;;;1.68;64.84
20983;BME280;10650;51.528;6.748;2023-02-28T01:24:06;102887.94;;;1.65;64.55
20983;BME280;10650;51.528;6.748;2023-02-28T01:26:35;102889.66;;;1.65;64.61
20983;BME280;10650;51.528;6.748;2023-02-28T01:29:03;102897.66;;;1.66;64.79
20983;BME280;10650;51.528;6.748;2023-02-28T01:31:31;102895.03;;;1.66;64.90
20983;BME280;10650;51.528;6.748;2023-02-28T01:33:58;102888.75;;;1.64;64.37
20983;BME280;10650;51.528;6.748;2023-02-28T01:36:26;102894.44;;;1.57;64.89
20983;BME280;10650;51.528;6.748;2023-02-28T01:38:54;102884.63;;;1.54;65.06
20983;BME280;10650;51.528;6.748;2023-02-28T01:41:24;102886.44;;;1.55;65.00
20983;BME280;10650;51.528;6.748;2023-02-28T01:43:59;102885.38;;;1.52;65.10
20983;BME280;10650;51.528;6.748;2023-02-28T01:46:30;102878.19;;;1.49;64.96
20983;BME280;10650;51.528;6.748;2023-02-28T01:49:03;102878.09;;;1.48;65.11
20983;BME280;10650;51.528;6.748;2023-02-28T01:51:36;102881.53;;;1.47;65.61
20983;BME280;10650;51.528;6.748;2023-02-28T01:54:05;102877.84;;;1.45;65.24
20983;BME280;10650;51.528;6.748;2023-02-28T01:56:43;102875.22;;;1.45;65.47
20983;BME280;10650;51.528;6.748;2023-02-28T01:59:19;102871.69;;;1.44;65.10
20983;BME280;10650;51.528;6.748;2023-02-28T02:01:49;102870.59;;;1.41;65.38
20983;BME280;10650;51.528;6.748;2023-02-28T02:04:17;102879.22;;;1.38;65.04
20983;BME280;10650;51.528;6.748;2023-02-28T02:06:47;102874.94;;;1.40;65.31
20983;BME280;10650;51.528;6.748;2023-02-28T02:09:15;102869.41;;;1.35;64.96
20983;BME280;10650;51.528;6.748;2023-02-28T02:11:44;102869.31;;;1.34;65.17
20983;BME280;10650;51.528;6.748;2023-02-28T02:14:24;102867.47;;;1.33;65.24
20983;BME280;10650;51.528;6.748;2023-02-28T02:17:06;102858.56;;;1.31;65.30
20983;BME280;10650;51.528;6.748;2023-02-28T02:20:07;102860.00;;;1.26;65.58
20983;BME280;10650;51.528;6.748;2023-02-28T02:23:00;102855.25;;;1.20;65.54
20983;BME280;10650;51.528;6.748;2023-02-28T02:25:36;102850.50;;;1.14;65.54
20983;BME280;10650;51.528;6.748;2023-02-28T02:28:28;102846.19;;;1.15;65.89
20983;BME280;10650;51.528;6.748;2023-02-28T02:34:25;102854.78;;;1.12;65.35
20983;BME280;10650;51.528;6.748;2023-02-28T02:37:00;102849.41;;;1.11;65.50
20983;BME280;10650;51.528;6.748;2023-02-28T02:39:36;102859.13;;;1.12;65.72
20983;BME280;10650;51.528;6.748;2023-02-28T02:42:27;102851.97;;;1.09;65.47
20983;BME280;10650;51.528;6.748;2023-02-28T02:45:00;102853.28;;;1.02;65.72
20983;BME280;10650;51.528;6.748;2023-02-28T02:47:30;102852.28;;;1.00;66.42
20983;BME280;10650;51.528;6.748;2023-02-28T02:50:03;102851.16;;;0.97;66.23
20983;BME280;10650;51.528;6.748;2023-02-28T02:52:36;102855.44;;;0.95;66.59
20983;BME280;10650;51.528;6.748;2023-02-28T02:55:07;102857.13;;;0.94;66.72
20983;BME280;10650;51.528;6.748;2023-02-28T02:57:40;102852.72;;;0.93;66.46
20983;BME280;10650;51.528;6.748;2023-02-28T03:00:14;102860.59;;;0.93;66.58
20983;BME280;10650;51.528;6.748;2023-02-28T03:02:46;102863.94;;;0.91;66.51
20983;BME280;10650;51.528;6.748;2023-02-28T03:05:19;102860.88;;;0.84;66.45
20983;BME280;10650;51.528;6.748;2023-02-28T03:07:47;102859.00;;;0.82;67.03
20983;BME280;10650;51.528;6.748;2023-02-28T03:10:30;102853.75;;;0.82;66.70
20983;BME280;10650;51.528;6.748;2023-02-28T03:13:09;102856.97;;;0.78;66.70
20983;BME280;10650;51.528;6.748;2023-02-28T03:15:47;102856.03;;;0.77;66.56
20983;BME280;10650;51.528;6.748;2023-02-28T03:18:24;102857.59;;;0.74;66.12
20983;BME280;10650;51.528;6.748;2023-02-28T03:21:02;102851.53;;;0.75;65.69
20983;BME280;10650;51.528;6.748;2023-02-28T03:23:38;102847.34;;;0.78;65.69
20983;BME280;10650;51.528;6.748;2023-02-28T03:26:14;102852.09;;;0.84;65.30
20983;BME280;10650;51.528;6.748;2023-02-28T03:28:52;102853.84;;;0.83;65.31
20983;BME280;10650;51.528;6.748;2023-02-28T03:31:27;102849.84;;;0.90;65.18
20983;BME280;10650;51.528;6.748;2023-02-28T03:34:03;102849.84;;;0.90;64.66
20983;BME280;10650;51.528;6.748;2023-02-28T03:36:36;102856.84;;;0.90;64.67
20983;BME280;10650;51.528;6.748;2023-02-28T03:39:14;102854.91;;;0.87;64.14
20983;BME280;10650;51.528;6.748;2023-02-28T03:41:52;102860.19;;;0.87;64.17
20983;BME280;10650;51.528;6.748;2023-02-28T03:44:24;102860.09;;;0.85;64.15
20983;BME280;10650;51.528;6.748;2023-02-28T03:46:58;102860.00;;;0.84;63.44
20983;BME280;10650;51.528;6.748;2023-02-28T03:49:30;102870.22;;;0.79;63.71
20983;BME280;10650;51.528;6.748;2023-02-28T03:52:03;102864.16;;;0.80;63.43
20983;BME280;10650;51.528;6.748;2023-02-28T03:54:38;102868.31;;;0.77;63.35
20983;BME280;10650;51.528;6.748;2023-02-28T03:57:13;102873.75;;;0.80;63.31
20983;BME280;10650;51.528;6.748;2023-02-28T03:59:46;102865.16;;;0.82;62.93
20983;BME280;10650;51.528;6.748;2023-02-28T04:02:15;102859.91;;;0.82;62.78
20983;BME280;10650;51.528;6.748;2023-02-28T04:04:43;102860.88;;;0.84;62.67
20983;BME280;10650;51.528;6.748;2023-02-28T04:07:16;102855.63;;;0.84;62.48
20983;BME280;10650;51.528;6.748;2023-02-28T04:09:44;102859.69;;;0.79;62.45
20983;BME280;10650;51.528;6.748;2023-02-28T04:12:12;102864.25;;;0.82;62.38
20983;BME280;10650;51.528;6.748;2023-02-28T04:14:40;102862.44;;;0.81;61.99
20983;BME280;10650;51.528;6.748;2023-02-28T04:17:07;102858.78;;;0.79;62.07
20983;BME280;10650;51.528;6.748;2023-02-28T04:19:35;102856.28;;;0.80;62.09
20983;BME280;10650;51.528;6.748;2023-02-28T04:22:03;102863.13;;;0.78;62.08
20983;BME280;10650;51.528;6.748;2023-02-28T04:24:32;102864.44;;;0.72;62.25
20983;BME280;10650;51.528;6.748;2023-02-28T04:27:01;102865.56;;;0.75;62.14
20983;BME280;10650;51.528;6.748;2023-02-28T04:29:30;102870.13;;;0.78;61.78
20983;BME280;10650;51.528;6.748;2023-02-28T04:31:59;102870.84;;;0.75;61.67
20983;BME280;10650;51.528;6.748;2023-02-28T04:34:29;102871.53;;;0.73;62.21
20983;BME280;10650;51.528;6.748;2023-02-28T04:37:00;102877.31;;;0.67;61.65
20983;BME280;10650;51.528;6.748;2023-02-28T04:39:41;102868.22;;;0.62;62.06
20983;BME280;10650;51.528;6.748;2023-02-28T04:42:09;102875.09;;;0.60;61.93
20983;BME280;10650;51.528;6.748;2023-02-28T04:44:37;102874.69;;;0.54;62.13
20983;BME280;10650;51.528;6.748;2023-02-28T04:47:05;102877.81;;;0.48;62.25
20983;BME280;10650;51.528;6.748;2023-02-28T04:49:33;102873.47;;;0.48;62.32
20983;BME280;10650;51.528;6.748;2023-02-28T04:52:01;102879.94;;;0.54;62.15
20983;BME280;10650;51.528;6.748;2023-02-28T04:54:28;102877.03;;;0.49;62.11
20983;BME280;10650;51.528;6.748;2023-02-28T04:56:57;102881.94;;;0.44;62.09
20983;BME280;10650;51.528;6.748;2023-02-28T04:59:25;102868.81;;;0.31;62.13
20983;BME280;10650;51.528;6.748;2023-02-28T05:01:53;102883.88;;;0.33;61.96
20983;BME280;10650;51.528;6.748;2023-02-28T05:04:21;102877.09;;;0.37;61.86
20983;BME280;10650;51.528;6.748;2023-02-28T05:06:48;102878.31;;;0.42;62.01
20983;BME280;10650;51.528;6.748;2023-02-28T05:09:16;102882.59;;;0.40;61.84
20983;BME280;10650;51.528;6.748;2023-02-28T05:11:44;102877.31;;;0.40;61.91
20983;BME280;10650;51.528;6.748;2023-02-28T05:14:13;102882.59;;;0.40;61.79
20983;BME280;10650;51.528;6.748;2023-02-28T05:16:41;102887.13;;;0.43;61.77
20983;BME280;10650;51.528;6.748;2023-02-28T05:19:09;102885.41;;;0.43;61.80
20983;BME280;10650;51.528;6.748;2023-02-28T05:21:38;102887.72;;;0.39;62.02
20983;BME280;10650;51.528;6.748;2023-02-28T05:24:10;102889.34;;;0.37;62.05
20983;BME280;10650;51.528;6.748;2023-02-28T05:26:40;102888.25;;;0.33;62.06
20983;BME280;10650;51.528;6.748;2023-02-28T05:29:09;102891.88;;;0.35;62.10
20983;BME280;10650;51.528;6.748;2023-02-28T05:31:38;102887.00;;;0.28;62.10
20983;BME280;10650;51.528;6.748;2023-02-28T05:34:06;102891.47;;;0.29;62.01
20983;BME280;10650;51.528;6.748;2023-02-28T05:36:36;102889.94;;;0.32;62.07
20983;BME280;10650;51.528;6.748;2023-02-28T05:39:05;102896.84;;;0.30;62.15
20983;BME280;10650;51.528;6.748;2023-02-28T05:41:33;102900.06;;;0.26;61.82
20983;BME280;10650;51.528;6.748;2023-02-28T05:44:01;102896.63;;;0.27;62.12
20983;BME280;10650;51.528;6.748;2023-02-28T05:46:29;102905.41;;;0.28;61.99
20983;BME280;10650;51.528;6.748;2023-02-28T05:48:58;102901.66;;;0.24;61.83
20983;BME280;10650;51.528;6.748;2023-02-28T05:51:27;102905.31;;;0.26;62.08
20983;BME280;10650;51.528;6.748;2023-02-28T05:53:58;102910.03;;;0.19;61.87
20983;BME280;10650;51.528;6.748;2023-02-28T05:56:26;102912.56;;;0.17;62.09
20983;BME280;10650;51.528;6.748;2023-02-28T05:58:54;102913.88;;;0.10;62.36
20983;BME280;10650;51.528;6.748;2023-02-28T06:01:25;102907.59;;;0.08;62.54
20983;BME280;10650;51.528;6.748;2023-02-28T06:03:59;102913.06;;;0.11;62.75
20983;BME280;10650;51.528;6.748;2023-02-28T06:06:28;102915.69;;;0.11;62.34
20983;BME280;10650;51.528;6.748;2023-02-28T06:08:57;102908.91;;;0.02;62.73
20983;BME280;10650;51.528;6.748;2023-02-28T06:11:25;102912.91;;;-0.04;62.93
20983;BME280;10650;51.528;6.748;2023-02-28T06:13:56;102908.81;;;0.00;63.31
20983;BME280;10650;51.528;6.748;2023-02-28T06:16:24;102921.50;;;-0.06;62.93
20983;BME280;10650;51.528;6.748;2023-02-28T06:18:52;102921.28;;;-0.09;63.20
20983;BME280;10650;51.528;6.748;2023-02-28T06:21:23;102923.44;;;-0.04;63.17
20983;BME280;10650;51.528;6.748;2023-02-28T06:23:51;102920.50;;;-0.08;63.41
20983;BME280;10650;51.528;6.748;2023-02-28T06:26:19;102930.91;;;-0.10;63.53
20983;BME280;10650;51.528;6.748;2023-02-28T06:28:47;102938.59;;;-0.13;63.72
20983;BME280;10650;51.528;6.748;2023-02-28T06:31:17;102932.38;;;-0.13;63.65
20983;BME280;10650;51.528;6.748;2023-02-28T06:33:46;102934.53;;;-0.08;63.63
20983;BME280;10650;51.528;6.748;2023-02-28T06:36:15;102930.53;;;-0.03;63.82
20983;BME280;10650;51.528;6.748;2023-02-28T06:38:45;102934.38;;;0.03;63.71
20983;BME280;10650;51.528;6.748;2023-02-28T06:41:17;102936.19;;;0.04;63.44
20983;BME280;10650;51.528;6.748;2023-02-28T06:43:45;102940.06;;;0.09;63.30
20983;BME280;10650;51.528;6.748;2023-02-28T06:46:13;102937.00;;;0.03;63.79
20983;BME280;10650;51.528;6.748;2023-02-28T06:48:43;102947.59;;;0.04;63.63
20983;BME280;10650;51.528;6.748;2023-02-28T06:51:14;102946.91;;;0.07;63.36
20983;BME280;10650;51.528;6.748;2023-02-28T06:53:42;102945.31;;;0.09;63.54
20983;BME280;10650;51.528;6.748;2023-02-28T06:56:13;102950.78;;;0.12;63.23
20983;BME280;10650;51.528;6.748;2023-02-28T06:58:41;102945.53;;;0.12;63.23
20983;BME280;10650;51.528;6.748;2023-02-28T07:01:09;102961.69;;;0.05;63.23
20983;BME280;10650;51.528;6.748;2023-02-28T07:03:37;102950.34;;;0.06;63.39
20983;BME280;10650;51.528;6.748;2023-02-28T07:06:05;102953.91;;;0.06;63.16
20983;BME280;10650;51.528;6.748;2023-02-28T07:08:33;102953.31;;;0.10;63.33
20983;BME280;10650;51.528;6.748;2023-02-28T07:11:02;102952.09;;;0.19;63.32
20983;BME280;10650;51.528;6.748;2023-02-28T07:13:31;102958.59;;;0.24;62.98
20983;BME280;10650;51.528;6.748;2023-02-28T07:16:04;102960.63;;;0.28;62.90
20983;BME280;10650;51.528;6.748;2023-02-28T07:18:32;102959.34;;;0.34;62.82
20983;BME280;10650;51.528;6.748;2023-02-28T07:21:02;102962.50;;;0.42;62.83
20983;BME280;10650;51.528;6.748;2023-02-28T07:23:30;102962.09;;;0.49;62.37
20983;BME280;10650;51.528;6.748;2023-02-28T07:26:01;102968.50;;;0.53;62.72
20983;BME280;10650;51.528;6.748;2023-02-28T07:28:31;102975.06;;;0.60;62.46
20983;BME280;10650;51.528;6.748;2023-02-28T07:31:03;102966.78;;;0.67;62.30
20983;BME280;10650;51.528;6.748;2023-02-28T07:33:32;102966.28;;;0.73;61.93
20983;BME280;10650;51.528;6.748;2023-02-28T07:36:04;102965.78;;;0.78;61.56
20983;BME280;10650;51.528;6.748;2023-02-28T07:38:33;102965.28;;;0.84;61.41
20983;BME280;10650;51.528;6.748;2023-02-28T07:41:01;102971.03;;;0.92;61.43
20983;BME280;10650;51.528;6.748;2023-02-28T07:43:33;102975.69;;;0.96;61.03
20983;BME280;10650;51.528;6.748;2023-02-28T07:46:02;102974.38;;;1.02;61.08
20983;BME280;10650;51.528;6.748;2023-02-28T07:48:30;102978.31;;;0.96;60.47
20983;BME280;10650;51.528;6.748;2023-02-28T07:50:59;102973.50;;;1.02;60.41
20983;BME280;10650;51.528;6.748;2023-02-28T07:53:27;102971.25;;;1.08;60.73
20983;BME280;10650;51.528;6.748;2023-02-28T07:55:55;102966.19;;;1.11;60.52
20983;BME280;10650;51.528;6.748;2023-02-28T07:58:24;102977.84;;;1.15;60.12
20983;BME280;10650;51.528;6.748;2023-02-28T08:00:53;102969.53;;;1.22;60.56
20983;BME280;10650;51.528;6.748;2023-02-28T08:03:22;102979.44;;;1.26;60.27
20983;BME280;10650;51.528;6.748;2023-02-28T08:05:50;102973.88;;;1.35;60.05
20983;BME280;10650;51.528;6.748;2023-02-28T08:08:18;102974.06;;;1.38;59.49
20983;BME280;10650;51.528;6.748;2023-02-28T08:10:46;102977.59;;;1.38;59.08
20983;BME280;10650;51.528;6.748;2023-02-28T08:13:14;102978.09;;;1.46;58.69
20983;BME280;10650;51.528;6.748;2023-02-28T08:15:42;102979.28;;;1.51;57.89
20983;BME280;10650;51.528;6.748;2023-02-28T08:18:13;102984.75;;;1.54;57.63
20983;BME280;10650;51.528;6.748;2023-02-28T08:20:40;102981.78;;;1.63;57.50
20983;BME280;10650;51.528;6.748;2023-02-28T08:23:08;102984.13;;;1.72;56.96
20983;BME280;10650;51.528;6.748;2023-02-28T08:25:36;102980.22;;;1.80;56.41
20983;BME280;10650;51.528;6.748;2023-02-28T08:28:04;102978.78;;;1.85;56.84
20983;BME280;10650;51.528;6.748;2023-02-28T08:30:32;102976.44;;;1.90;56.47
20983;BME280;10650;51.528;6.748;2023-02-28T08:32:59;102973.88;;;1.92;55.94
20983;BME280;10650;51.528;6.748;2023-02-28T08:35:29;102976.72;;;1.95;55.83
20983;BME280;10650;51.528;6.748;2023-02-28T08:37:57;102985.13;;;2.02;55.97
20983;BME280;10650;51.528;6.748;2023-02-28T08:40:25;102980.84;;;2.04;54.92
20983;BME280;10650;51.528;6.748;2023-02-28T08:42:52;102982.94;;;2.10;55.16
20983;BME280;10650;51.528;6.748;2023-02-28T08:45:20;102979.84;;;2.17;54.50
20983;BME280;10650;51.528;6.748;2023-02-28T08:47:48;102979.50;;;2.26;54.58
20983;BME280;10650;51.528;6.748;2023-02-28T08:50:29;102979.41;;;2.24;52.92
20983;BME280;10650;51.528;6.748;2023-02-28T08:52:57;102979.69;;;2.29;53.34
20983;BME280;10650;51.528;6.748;2023-02-28T08:55:24;102972.25;;;2.37;53.25
20983;BME280;10650;51.528;6.748;2023-02-28T08:57:52;102975.53;;;2.48;53.67
20983;BME280;10650;51.528;6.748;2023-02-28T09:00:22;102970.91;;;2.58;52.87
20983;BME280;10650;51.528;6.748;2023-02-28T09:02:50;102973.97;;;2.66;52.46
20983;BME280;10650;51.528;6.748;2023-02-28T09:05:18;102962.88;;;2.72;51.23
20983;BME280;10650;51.528;6.748;2023-02-28T09:07:47;102965.06;;;2.79;50.96
20983;BME280;10650;51.528;6.748;2023-02-28T09:10:15;102954.66;;;2.82;50.60
20983;BME280;10650;51.528;6.748;2023-02-28T09:12:43;102957.06;;;2.92;51.13
20983;BME280;10650;51.528;6.748;2023-02-28T09:15:13;102961.03;;;3.01;51.32
20983;BME280;10650;51.528;6.748;2023-02-28T09:17:41;102953.38;;;3.05;50.61
20983;BME280;10650;51.528;6.748;2023-02-28T09:20:12;102948.09;;;3.05;50.37
20983;BME280;10650;51.528;6.748;2023-02-28T09:22:40;102946.34;;;3.06;49.58
20983;BME280;10650;51.528;6.748;2023-02-28T09:25:09;102944.06;;;3.12;49.42
20983;BME280;10650;51.528;6.748;2023-02-28T09:27:36;102947.31;;;3.23;48.90
20983;BME280;10650;51.528;6.748;2023-02-28T09:30:05;102953.97;;;3.31;48.81
20983;BME280;10650;51.528;6.748;2023-02-28T09:32:33;102953.19;;;3.34;47.61
20983;BME280;10650;51.528;6.748;2023-02-28T09:35:01;102948.28;;;3.40;47.15
20983;BME280;10650;51.528;6.748;2023-02-28T09:37:29;102945.97;;;3.46;46.56
20983;BME280;10650;51.528;6.748;2023-02-28T09:39:57;102945.56;;;3.55;46.14
20983;BME280;10650;51.528;6.748;2023-02-28T09:42:31;102940.78;;;3.64;45.71
20983;BME280;10650;51.528;6.748;2023-02-28T09:45:00;102946.97;;;3.64;44.92
20983;BME280;10650;51.528;6.748;2023-02-28T09:47:32;102948.31;;;3.73;45.93
20983;BME280;10650;51.528;6.748;2023-02-28T09:50:06;102942.84;;;3.86;44.62
20983;BME280;10650;51.528;6.748;2023-02-28T09:52:39;102935.22;;;3.92;44.45
20983;BME280;10650;51.528;6.748;2023-02-28T09:55:20;102940.72;;;3.95;45.03
20983;BME280;10650;51.528;6.748;2023-02-28T09:57:54;102941.78;;;3.99;43.94
20983;BME280;10650;51.528;6.748;2023-02-28T10:00:28;102942.94;;;4.04;43.49
20983;BME280;10650;51.528;6.748;2023-02-28T10:03:04;102945.75;;;4.07;43.68
20983;BME280;10650;51.528;6.748;2023-02-28T10:05:38;102947.44;;;4.07;44.16
20983;BME280;10650;51.528;6.748;2023-02-28T10:08:13;102945.59;;;4.04;43.70
20983;BME280;10650;51.528;6.748;2023-02-28T10:10:44;102945.16;;;4.13;43.63
20983;BME280;10650;51.528;6.748;2023-02-28T10:13:17;102942.06;;;4.22;43.67
20983;BME280;10650;51.528;6.748;2023-02-28T10:15:50;102936.78;;;4.22;43.06
20983;BME280;10650;51.528;6.748;2023-02-28T10:18:22;102932.31;;;4.21;43.04
20983;BME280;10650;51.528;6.748;2023-02-28T10:20:53;102935.84;;;4.21;43.99
20983;BME280;10650;51.528;6.748;2023-02-28T10:23:24;102929.81;;;4.24;42.79
20983;BME280;10650;51.528;6.748;2023-02-28T10:25:55;102932.53;;;4.25;43.44
20983;BME280;10650;51.528;6.748;2023-02-28T10:28:28;102937.84;;;4.25;42.90
20983;BME280;10650;51.528;6.748;2023-02-28T10:30:58;102934.72;;;4.16;42.98
20983;BME280;10650;51.528;6.748;2023-02-28T10:33:29;102947.13;;;4.17;43.11
20983;BME280;10650;51.528;6.748;2023-02-28T10:35:58;102933.63;;;4.12;43.01
20983;BME280;10650;51.528;6.748;2023-02-28T10:38:27;102936.94;;;4.08;43.13
20983;BME280;10650;51.528;6.748;2023-02-28T10:41:06;102921.72;;;4.21;43.96
20983;BME280;10650;51.528;6.748;2023-02-28T10:43:36;102923.50;;;4.38;44.21
20983;BME280;10650;51.528;6.748;2023-02-28T10:46:11;102931.19;;;4.50;43.62
20983;BME280;10650;51.528;6.748;2023-02-28T10:48:43;102927.25;;;4.60;43.10
20983;BME280;10650;51.528;6.748;2023-02-28T10:51:16;102923.31;;;4.70;42.64
20983;BME280;10650;51.528;6.748;2023-02-28T10:53:48;102916.75;;;4.79;42.78
20983;BME280;10650;51.528;6.748;2023-02-28T10:56:27;102930.47;;;4.89;42.51
20983;BME280;10650;51.528;6.748;2023-02-28T10:58:59;102925.00;;;4.85;42.86
20983;BME280;10650;51.528;6.748;2023-02-28T11:01:38;102919.75;;;4.87;42.97
20983;BME280;10650;51.528;6.748;2023-02-28T11:04:20;102919.53;;;4.82;42.84
20983;BME280;10650;51.528;6.748;2023-02-28T11:07:01;102913.63;;;4.88;43.18
20983;BME280;10650;51.528;6.748;2023-02-28T11:09:32;102916.00;;;4.82;42.77
20983;BME280;10650;51.528;6.748;2023-02-28T11:12:02;102920.66;;;4.70;42.47
20983;BME280;10650;51.528;6.748;2023-02-28T11:14:36;102916.75;;;4.61;42.16
20983;BME280;10650;51.528;6.748;2023-02-28T11:17:14;102915.81;;;4.61;42.84
20983;BME280;10650;51.528;6.748;2023-02-28T11:19:45;102918.88;;;4.68;42.77
20983;BME280;10650;51.528;6.748;2023-02-28T11:22:17;102917.03;;;4.85;42.40
20983;BME280;10650;51.528;6.748;2023-02-28T11:24:49;102913.44;;;5.01;42.67
20983;BME280;10650;51.528;6.748;2023-02-28T11:27:42;102911.13;;;5.09;42.02
20983;BME280;10650;51.528;6.748;2023-02-28T11:32:53;102913.91;;;5.30;41.94
20983;BME280;10650;51.528;6.748;2023-02-28T11:35:24;102910.59;;;5.34;41.00
20983;BME280;10650;51.528;6.748;2023-02-28T11:37:53;102908.47;;;5.27;41.00
20983;BME280;10650;51.528;6.748;2023-02-28T11:40:27;102911.63;;;5.38;41.27
20983;BME280;10650;51.528;6.748;2023-02-28T11:43:02;102913.72;;;5.45;41.20
20983;BME280;10650;51.528;6.748;2023-02-28T11:45:44;102901.66;;;5.52;40.69
20983;BME280;10650;51.528;6.748;2023-02-28T11:48:20;102882.03;;;5.48;39.92
20983;BME280;10650;51.528;6.748;2023-02-28T11:50:57;102900.13;;;5.57;40.58
20983;BME280;10650;51.528;6.748;2023-02-28T11:53:50;102901.03;;;5.58;40.21
20983;BME280;10650;51.528;6.748;2023-02-28T11:56:26;102905.41;;;5.57;40.23
20983;BME280;10650;51.528;6.748;2023-02-28T11:59:18;102903.69;;;5.58;40.14
20983;BME280;10650;51.528;6.748;2023-02-28T12:02:05;102893.09;;;5.58;40.26
20983;BME280;10650;51.528;6.748;2023-02-28T12:04:45;102882.25;;;5.53;39.93
20983;BME280;10650;51.528;6.748;2023-02-28T12:07:23;102895.66;;;5.56;40.12
20983;BME280;10650;51.528;6.748;2023-02-28T12:10:04;102874.66;;;5.61;39.93
20983;BME280;10650;51.528;6.748;2023-02-28T12:12:40;102872.91;;;5.61;40.04
20983;BME280;10650;51.528;6.748;2023-02-28T12:18:29;102866.13;;;5.68;39.86
20983;BME280;10650;51.528;6.748;2023-02-28T12:21:08;102864.59;;;5.73;40.23
20983;BME280;10650;51.528;6.748;2023-02-28T12:23:52;102849.16;;;5.84;40.52
20983;BME280;10650;51.528;6.748;2023-02-28T12:26:32;102850.97;;;5.85;40.15
20983;BME280;10650;51.528;6.748;2023-02-28T12:29:09;102839.50;;;5.86;41.03
20983;BME280;10650;51.528;6.748;2023-02-28T12:31:40;102837.28;;;5.95;40.17
20983;BME280;10650;51.528;6.748;2023-02-28T12:34:11;102828.59;;;5.98;40.54
20983;BME280;10650;51.528;6.748;2023-02-28T12:36:45;102838.56;;;6.03;41.18
20983;BME280;10650;51.528;6.748;2023-02-28T12:39:19;102824.28;;;6.01;40.54
20983;BME280;10650;51.528;6.748;2023-02-28T12:41:53;102826.88;;;6.00;40.64
20983;BME280;10650;51.528;6.748;2023-02-28T12:44:26;102826.44;;;6.10;40.49
20983;BME280;10650;51.528;6.748;2023-02-28T12:46:59;102825.53;;;6.10;40.60
20983;BME280;10650;51.528;6.748;2023-02-28T12:49:33;102831.69;;;6.09;40.30
20983;BME280;10650;51.528;6.748;2023-02-28T12:52:06;102821.84;;;6.06;40.84
20983;BME280;10650;51.528;6.748;2023-02-28T12:54:42;102823.00;;;6.13;40.97
20983;BME280;10650;51.528;6.748;2023-02-28T12:57:16;102817.94;;;6.19;40.60
20983;BME280;10650;51.528;6.748;2023-02-28T12:59:50;102815.47;;;6.22;40.22
20983;BME280;10650;51.528;6.748;2023-02-28T13:02:56;102806.78;;;6.26;40.34
20983;BME280;10650;51.528;6.748;2023-02-28T13:08:59;102797.91;;;6.26;40.12
20983;BME280;10650;51.528;6.748;2023-02-28T13:11:30;102793.16;;;6.18;40.63
20983;BME280;10650;51.528;6.748;2023-02-28T13:14:01;102795.25;;;6.26;40.71
20983;BME280;10650;51.528;6.748;2023-02-28T13:16:48;102791.88;;;6.30;40.88
20983;BME280;10650;51.528;6.748;2023-02-28T13:19:20;102790.44;;;6.38;41.71
20983;BME280;10650;51.528;6.748;2023-02-28T13:21:50;102799.25;;;6.37;40.70
20983;BME280;10650;51.528;6.748;2023-02-28T13:24:44;102789.72;;;6.42;41.10
20983;BME280;10650;51.528;6.748;2023-02-28T13:27:37;102780.19;;;6.47;40.83
20983;BME280;10650;51.528;6.748;2023-02-28T13:33:25;102787.78;;;6.59;41.47
20983;BME280;10650;51.528;6.748;2023-02-28T13:36:25;102778.63;;;6.52;41.38
20983;BME280;10650;51.528;6.748;2023-02-28T13:38:54;102779.66;;;6.56;41.10